sensor_id;sensor_type;location;lat;lon;timestamp;P1;durP1;ratioP1;P2;durP2;ratioP2
1336;SDS011;662;48.814;9.318;2023-09-08T00:01:56;6.40;;;5.80;;
1336;SDS011;662;48.814;9.318;2023-09-08T00:04:21;7.40;;;6.60;;
1336;SDS011;662;48.814;9.318;2023-09-08T00:06:48;6.73;;;5.80;;
1336;SDS011;662;48.814;9.318;2023-09-08T00:09:14;7.27;;;6.17;;
1336;SDS011;662;48.814;9.318;2023-09-08T00:11:40;6.87;;;6.27;;
1336;SDS011;662;48.814;9.318;2023-09-08T00:14:06;9.13;;;6.40;;
1336;SDS011;662;48.814;9.318;2023-09-08T00:16:32;7.50;;;6.37;;
1336;SDS011;662;48.814;9.318;2023-09-08T00:18:57;7.63;;;6.67;;
1336;SDS011;662;48.814;9.318;2023-09-08T00:21:24;7.40;;;6.70;;
1336;SDS011;662;48.814;9.318;2023-09-08T00:23:50;6.83;;;6.17;;
1336;SDS011;662;48.814;9.318;2023-09-08T00:26:16;7.43;;;6.73;;
1336;SDS011;662;48.814;9.318;2023-09-08T00:28:42;7.13;;;6.47;;
1336;SDS011;662;48.814;9.318;2023-09-08T00:31:08;7.97;;;7.27;;
1336;SDS011;662;48.814;9.318;2023-09-08T00:33:33;6.87;;;6.27;;
1336;SDS011;662;48.814;9.318;2023-09-08T00:35:59;7.43;;;6.70;;
1336;SDS011;662;48.814;9.318;2023-09-08T00:38:25;7.23;;;6.50;;
1336;SDS011;662;48.814;9.318;2023-09-08T00:40:51;6.53;;;5.93;;
1336;SDS011;662;48.814;9.318;2023-09-08T00:43:16;6.27;;;5.67;;
1336;SDS011;662;48.814;9.318;2023-09-08T00:45:43;6.50;;;5.90;;
1336;SDS011;662;48.814;9.318;2023-09-08T00:48:10;6.20;;;5.60;;
1336;SDS011;662;48.814;9.318;2023-09-08T00:50:35;6.60;;;5.90;;
1336;SDS011;662;48.814;9.318;2023-09-08T00:53:05;6.53;;;5.93;;
1336;SDS011;662;48.814;9.318;2023-09-08T00:55:32;5.77;;;5.27;;
1336;SDS011;662;48.814;9.318;2023-09-08T00:57:59;6.77;;;6.17;;
1336;SDS011;662;48.814;9.318;2023-09-08T01:00:25;6.77;;;6.17;;
1336;SDS011;662;48.814;9.318;2023-09-08T01:02:51;7.07;;;6.37;;
1336;SDS011;662;48.814;9.318;2023-09-08T01:05:16;6.80;;;6.07;;
1336;SDS011;662;48.814;9.318;2023-09-08T01:07:42;6.00;;;5.23;;
1336;SDS011;662;48.814;9.318;2023-09-08T01:10:09;6.37;;;5.87;;
1336;SDS011;662;48.814;9.318;2023-09-08T01:12:36;6.73;;;6.10;;
1336;SDS011;662;48.814;9.318;2023-09-08T01:15:02;6.70;;;6.10;;
1336;SDS011;662;48.814;9.318;2023-09-08T01:17:28;6.30;;;5.80;;
1336;SDS011;662;48.814;9.318;2023-09-08T01:19:54;6.97;;;6.37;;
1336;SDS011;662;48.814;9.318;2023-09-08T01:22:22;7.37;;;6.67;;
1336;SDS011;662;48.814;9.318;2023-09-08T01:25:17;6.90;;;6.20;;
1336;SDS011;662;48.814;9.318;2023-09-08T01:27:46;6.80;;;6.10;;
1336;SDS011;662;48.814;9.318;2023-09-08T01:30:14;6.97;;;6.27;;
1336;SDS011;662;48.814;9.318;2023-09-08T01:32:41;6.80;;;6.20;;
1336;SDS011;662;48.814;9.318;2023-09-08T01:35:09;6.53;;;6.03;;
1336;SDS011;662;48.814;9.318;2023-09-08T01:37:35;6.30;;;5.70;;
1336;SDS011;662;48.814;9.318;2023-09-08T01:40:01;6.53;;;5.67;;
1336;SDS011;662;48.814;9.318;2023-09-08T01:42:26;6.90;;;6.20;;
1336;SDS011;662;48.814;9.318;2023-09-08T01:44:52;6.53;;;5.93;;
1336;SDS011;662;48.814;9.318;2023-09-08T01:47:18;6.87;;;6.23;;
1336;SDS011;662;48.814;9.318;2023-09-08T01:49:44;6.73;;;6.13;;
1336;SDS011;662;48.814;9.318;2023-09-08T01:52:10;6.97;;;5.93;;
1336;SDS011;662;48.814;9.318;2023-09-08T01:54:36;8.07;;;5.90;;
1336;SDS011;662;48.814;9.318;2023-09-08T01:57:02;7.33;;;6.40;;
1336;SDS011;662;48.814;9.318;2023-09-08T01:59:27;6.60;;;5.80;;
1336;SDS011;662;48.814;9.318;2023-09-08T02:01:53;6.90;;;6.30;;
1336;SDS011;662;48.814;9.318;2023-09-08T02:04:19;6.40;;;5.80;;
1336;SDS011;662;48.814;9.318;2023-09-08T02:06:44;7.00;;;6.40;;
1336;SDS011;662;48.814;9.318;2023-09-08T02:09:11;7.17;;;6.57;;
1336;SDS011;662;48.814;9.318;2023-09-08T02:11:38;6.57;;;5.97;;
1336;SDS011;662;48.814;9.318;2023-09-08T02:14:04;6.43;;;5.50;;
1336;SDS011;662;48.814;9.318;2023-09-08T02:16:29;6.13;;;5.53;;
1336;SDS011;662;48.814;9.318;2023-09-08T02:18:55;13.27;;;6.10;;
1336;SDS011;662;48.814;9.318;2023-09-08T02:21:21;7.40;;;6.47;;
1336;SDS011;662;48.814;9.318;2023-09-08T02:23:47;9.10;;;7.27;;
1336;SDS011;662;48.814;9.318;2023-09-08T02:26:12;7.13;;;6.37;;
1336;SDS011;662;48.814;9.318;2023-09-08T02:28:38;7.00;;;6.40;;
1336;SDS011;662;48.814;9.318;2023-09-08T02:31:03;7.33;;;6.20;;
1336;SDS011;662;48.814;9.318;2023-09-08T02:33:29;7.40;;;6.00;;
1336;SDS011;662;48.814;9.318;2023-09-08T02:35:55;7.10;;;5.90;;
1336;SDS011;662;48.814;9.318;2023-09-08T02:38:20;10.07;;;6.10;;
1336;SDS011;662;48.814;9.318;2023-09-08T02:40:46;7.17;;;6.47;;
1336;SDS011;662;48.814;9.318;2023-09-08T02:43:11;7.23;;;6.53;;
1336;SDS011;662;48.814;9.318;2023-09-08T02:45:37;7.30;;;6.20;;
1336;SDS011;662;48.814;9.318;2023-09-08T02:48:02;7.90;;;7.10;;
1336;SDS011;662;48.814;9.318;2023-09-08T02:50:28;8.53;;;7.73;;
1336;SDS011;662;48.814;9.318;2023-09-08T02:52:54;9.73;;;6.90;;
1336;SDS011;662;48.814;9.318;2023-09-08T02:55:19;6.63;;;6.03;;
1336;SDS011;662;48.814;9.318;2023-09-08T02:57:45;7.33;;;6.13;;
1336;SDS011;662;48.814;9.318;2023-09-08T03:00:10;6.33;;;5.77;;
1336;SDS011;662;48.814;9.318;2023-09-08T03:02:36;6.93;;;6.33;;
1336;SDS011;662;48.814;9.318;2023-09-08T03:05:02;7.40;;;6.20;;
1336;SDS011;662;48.814;9.318;2023-09-08T03:07:28;7.47;;;6.30;;
1336;SDS011;662;48.814;9.318;2023-09-08T03:09:53;7.07;;;6.47;;
1336;SDS011;662;48.814;9.318;2023-09-08T03:12:19;6.10;;;5.60;;
1336;SDS011;662;48.814;9.318;2023-09-08T03:14:45;7.40;;;6.70;;
1336;SDS011;662;48.814;9.318;2023-09-08T03:17:13;9.17;;;7.07;;
1336;SDS011;662;48.814;9.318;2023-09-08T03:19:39;7.27;;;6.40;;
1336;SDS011;662;48.814;9.318;2023-09-08T03:22:04;7.50;;;6.13;;
1336;SDS011;662;48.814;9.318;2023-09-08T03:24:30;6.57;;;5.97;;
1336;SDS011;662;48.814;9.318;2023-09-08T03:26:56;6.73;;;5.83;;
1336;SDS011;662;48.814;9.318;2023-09-08T03:29:22;7.07;;;6.47;;
1336;SDS011;662;48.814;9.318;2023-09-08T03:31:48;8.33;;;6.97;;
1336;SDS011;662;48.814;9.318;2023-09-08T03:34:14;7.63;;;6.93;;
1336;SDS011;662;48.814;9.318;2023-09-08T03:36:39;7.23;;;6.53;;
1336;SDS011;662;48.814;9.318;2023-09-08T03:39:05;8.23;;;7.20;;
1336;SDS011;662;48.814;9.318;2023-09-08T03:41:31;9.63;;;6.37;;
1336;SDS011;662;48.814;9.318;2023-09-08T03:43:56;7.97;;;6.77;;
1336;SDS011;662;48.814;9.318;2023-09-08T03:46:22;8.67;;;7.17;;
1336;SDS011;662;48.814;9.318;2023-09-08T03:48:49;7.90;;;6.77;;
1336;SDS011;662;48.814;9.318;2023-09-08T03:51:15;8.87;;;6.93;;
1336;SDS011;662;48.814;9.318;2023-09-08T03:53:41;6.40;;;5.83;;
1336;SDS011;662;48.814;9.318;2023-09-08T03:56:06;6.97;;;6.27;;
1336;SDS011;662;48.814;9.318;2023-09-08T03:58:32;7.43;;;6.47;;
1336;SDS011;662;48.814;9.318;2023-09-08T04:00:57;7.00;;;6.40;;
1336;SDS011;662;48.814;9.318;2023-09-08T04:03:23;8.03;;;7.33;;
1336;SDS011;662;48.814;9.318;2023-09-08T04:05:49;7.57;;;6.87;;
1336;SDS011;662;48.814;9.318;2023-09-08T04:08:14;8.90;;;6.93;;
1336;SDS011;662;48.814;9.318;2023-09-08T04:10:40;7.50;;;5.87;;
1336;SDS011;662;48.814;9.318;2023-09-08T04:13:05;6.53;;;5.90;;
1336;SDS011;662;48.814;9.318;2023-09-08T04:15:31;9.50;;;7.10;;
1336;SDS011;662;48.814;9.318;2023-09-08T04:17:57;8.20;;;7.37;;
1336;SDS011;662;48.814;9.318;2023-09-08T04:20:23;8.20;;;6.87;;
1336;SDS011;662;48.814;9.318;2023-09-08T04:22:48;7.63;;;6.93;;
1336;SDS011;662;48.814;9.318;2023-09-08T04:25:14;7.67;;;6.10;;
1336;SDS011;662;48.814;9.318;2023-09-08T04:27:40;9.60;;;7.13;;
1336;SDS011;662;48.814;9.318;2023-09-08T04:30:06;6.50;;;6.00;;
1336;SDS011;662;48.814;9.318;2023-09-08T04:32:32;8.47;;;7.60;;
1336;SDS011;662;48.814;9.318;2023-09-08T04:34:58;7.70;;;6.97;;
1336;SDS011;662;48.814;9.318;2023-09-08T04:37:23;8.07;;;6.80;;
1336;SDS011;662;48.814;9.318;2023-09-08T04:39:49;7.93;;;7.13;;
1336;SDS011;662;48.814;9.318;2023-09-08T04:42:15;7.30;;;6.57;;
1336;SDS011;662;48.814;9.318;2023-09-08T04:44:40;7.07;;;6.37;;
1336;SDS011;662;48.814;9.318;2023-09-08T04:47:06;7.37;;;6.60;;
1336;SDS011;662;48.814;9.318;2023-09-08T04:49:32;7.20;;;6.50;;
1336;SDS011;662;48.814;9.318;2023-09-08T04:51:57;8.20;;;6.63;;
1336;SDS011;662;48.814;9.318;2023-09-08T04:54:23;7.37;;;6.67;;
1336;SDS011;662;48.814;9.318;2023-09-08T04:56:52;7.00;;;6.30;;
1336;SDS011;662;48.814;9.318;2023-09-08T04:59:18;7.40;;;6.67;;
1336;SDS011;662;48.814;9.318;2023-09-08T05:01:44;8.30;;;7.10;;
1336;SDS011;662;48.814;9.318;2023-09-08T05:04:09;10.03;;;6.60;;
1336;SDS011;662;48.814;9.318;2023-09-08T05:06:36;7.50;;;6.67;;
1336;SDS011;662;48.814;9.318;2023-09-08T05:09:02;7.03;;;6.40;;
1336;SDS011;662;48.814;9.318;2023-09-08T05:11:28;8.03;;;7.23;;
1336;SDS011;662;48.814;9.318;2023-09-08T05:13:53;8.97;;;6.90;;
1336;SDS011;662;48.814;9.318;2023-09-08T05:16:19;7.80;;;7.00;;
1336;SDS011;662;48.814;9.318;2023-09-08T05:19:00;8.80;;;7.90;;
1336;SDS011;662;48.814;9.318;2023-09-08T05:21:26;10.63;;;7.90;;
1336;SDS011;662;48.814;9.318;2023-09-08T05:23:52;7.80;;;7.10;;
1336;SDS011;662;48.814;9.318;2023-09-08T05:26:17;7.47;;;6.77;;
1336;SDS011;662;48.814;9.318;2023-09-08T05:28:43;8.33;;;7.53;;
1336;SDS011;662;48.814;9.318;2023-09-08T05:31:08;8.70;;;7.53;;
1336;SDS011;662;48.814;9.318;2023-09-08T05:33:34;8.00;;;7.10;;
1336;SDS011;662;48.814;9.318;2023-09-08T05:36:00;7.80;;;7.10;;
1336;SDS011;662;48.814;9.318;2023-09-08T05:38:25;8.33;;;7.43;;
1336;SDS011;662;48.814;9.318;2023-09-08T05:40:53;10.23;;;7.80;;
1336;SDS011;662;48.814;9.318;2023-09-08T05:43:18;8.20;;;7.40;;
1336;SDS011;662;48.814;9.318;2023-09-08T05:45:44;9.80;;;7.60;;
1336;SDS011;662;48.814;9.318;2023-09-08T05:48:09;8.40;;;7.60;;
1336;SDS011;662;48.814;9.318;2023-09-08T05:50:36;8.27;;;7.13;;
1336;SDS011;662;48.814;9.318;2023-09-08T05:53:01;9.17;;;7.60;;
1336;SDS011;662;48.814;9.318;2023-09-08T05:55:27;8.70;;;7.80;;
1336;SDS011;662;48.814;9.318;2023-09-08T05:57:52;8.03;;;7.23;;
1336;SDS011;662;48.814;9.318;2023-09-08T06:00:18;28.40;;;15.87;;
1336;SDS011;662;48.814;9.318;2023-09-08T06:02:44;23.40;;;15.00;;
1336;SDS011;662;48.814;9.318;2023-09-08T06:05:10;19.73;;;11.23;;
1336;SDS011;662;48.814;9.318;2023-09-08T06:07:36;21.13;;;13.00;;
1336;SDS011;662;48.814;9.318;2023-09-08T06:10:01;13.20;;;10.17;;
1336;SDS011;662;48.814;9.318;2023-09-08T06:12:28;11.37;;;9.70;;
1336;SDS011;662;48.814;9.318;2023-09-08T06:14:54;11.43;;;8.10;;
1336;SDS011;662;48.814;9.318;2023-09-08T06:17:19;8.77;;;7.90;;
1336;SDS011;662;48.814;9.318;2023-09-08T06:19:45;9.50;;;8.37;;
1336;SDS011;662;48.814;9.318;2023-09-08T06:22:10;10.07;;;9.03;;
1336;SDS011;662;48.814;9.318;2023-09-08T06:24:36;11.73;;;8.63;;
1336;SDS011;662;48.814;9.318;2023-09-08T06:27:02;9.80;;;8.70;;
1336;SDS011;662;48.814;9.318;2023-09-08T06:29:27;17.37;;;10.17;;
1336;SDS011;662;48.814;9.318;2023-09-08T06:31:53;14.40;;;9.40;;
1336;SDS011;662;48.814;9.318;2023-09-08T06:34:19;12.90;;;9.47;;
1336;SDS011;662;48.814;9.318;2023-09-08T06:36:47;13.20;;;10.87;;
1336;SDS011;662;48.814;9.318;2023-09-08T06:39:13;16.60;;;12.50;;
1336;SDS011;662;48.814;9.318;2023-09-08T06:41:38;16.83;;;11.87;;
1336;SDS011;662;48.814;9.318;2023-09-08T06:44:04;15.37;;;11.13;;
1336;SDS011;662;48.814;9.318;2023-09-08T06:46:30;10.90;;;9.77;;
1336;SDS011;662;48.814;9.318;2023-09-08T06:48:56;9.53;;;8.40;;
1336;SDS011;662;48.814;9.318;2023-09-08T06:51:21;10.50;;;9.03;;
1336;SDS011;662;48.814;9.318;2023-09-08T06:53:53;11.40;;;9.20;;
1336;SDS011;662;48.814;9.318;2023-09-08T06:56:21;10.60;;;8.07;;
1336;SDS011;662;48.814;9.318;2023-09-08T06:58:47;8.80;;;7.93;;
1336;SDS011;662;48.814;9.318;2023-09-08T07:01:13;8.90;;;8.00;;
1336;SDS011;662;48.814;9.318;2023-09-08T07:03:38;9.00;;;8.00;;
1336;SDS011;662;48.814;9.318;2023-09-08T07:06:04;8.40;;;7.60;;
1336;SDS011;662;48.814;9.318;2023-09-08T07:08:29;8.13;;;7.33;;
1336;SDS011;662;48.814;9.318;2023-09-08T07:10:55;9.33;;;8.37;;
1336;SDS011;662;48.814;9.318;2023-09-08T07:13:20;9.03;;;8.13;;
1336;SDS011;662;48.814;9.318;2023-09-08T07:15:47;7.70;;;6.90;;
1336;SDS011;662;48.814;9.318;2023-09-08T07:18:13;7.97;;;7.10;;
1336;SDS011;662;48.814;9.318;2023-09-08T07:20:38;7.57;;;6.87;;
1336;SDS011;662;48.814;9.318;2023-09-08T07:23:04;7.93;;;7.13;;
1336;SDS011;662;48.814;9.318;2023-09-08T07:25:30;8.90;;;7.67;;
1336;SDS011;662;48.814;9.318;2023-09-08T07:27:56;8.60;;;7.57;;
1336;SDS011;662;48.814;9.318;2023-09-08T07:30:21;12.20;;;8.83;;
1336;SDS011;662;48.814;9.318;2023-09-08T07:32:47;9.83;;;8.00;;
1336;SDS011;662;48.814;9.318;2023-09-08T07:35:13;9.93;;;8.20;;
1336;SDS011;662;48.814;9.318;2023-09-08T07:37:42;12.03;;;8.43;;
1336;SDS011;662;48.814;9.318;2023-09-08T07:40:11;9.03;;;8.17;;
1336;SDS011;662;48.814;9.318;2023-09-08T07:42:37;10.27;;;7.73;;
1336;SDS011;662;48.814;9.318;2023-09-08T07:45:02;8.57;;;7.77;;
1336;SDS011;662;48.814;9.318;2023-09-08T07:47:28;8.90;;;7.60;;
1336;SDS011;662;48.814;9.318;2023-09-08T07:50:15;7.97;;;7.27;;
1336;SDS011;662;48.814;9.318;2023-09-08T07:52:50;8.70;;;7.90;;
1336;SDS011;662;48.814;9.318;2023-09-08T07:55:17;8.67;;;7.87;;
1336;SDS011;662;48.814;9.318;2023-09-08T07:57:43;8.17;;;7.33;;
1336;SDS011;662;48.814;9.318;2023-09-08T08:00:12;8.53;;;7.20;;
1336;SDS011;662;48.814;9.318;2023-09-08T08:02:41;7.43;;;6.60;;
1336;SDS011;662;48.814;9.318;2023-09-08T08:05:11;7.03;;;6.33;;
1336;SDS011;662;48.814;9.318;2023-09-08T08:07:38;7.90;;;7.10;;
1336;SDS011;662;48.814;9.318;2023-09-08T08:10:04;7.00;;;6.40;;
1336;SDS011;662;48.814;9.318;2023-09-08T08:12:31;7.53;;;6.83;;
1336;SDS011;662;48.814;9.318;2023-09-08T08:14:57;7.67;;;6.87;;
1336;SDS011;662;48.814;9.318;2023-09-08T08:17:23;9.53;;;6.90;;
1336;SDS011;662;48.814;9.318;2023-09-08T08:19:50;8.13;;;7.00;;
1336;SDS011;662;48.814;9.318;2023-09-08T08:22:16;7.33;;;6.63;;
1336;SDS011;662;48.814;9.318;2023-09-08T08:24:42;7.93;;;7.23;;
1336;SDS011;662;48.814;9.318;2023-09-08T08:27:07;7.00;;;5.97;;
1336;SDS011;662;48.814;9.318;2023-09-08T08:29:33;7.10;;;6.40;;
1336;SDS011;662;48.814;9.318;2023-09-08T08:31:59;6.53;;;5.97;;
1336;SDS011;662;48.814;9.318;2023-09-08T08:34:24;7.10;;;6.40;;
1336;SDS011;662;48.814;9.318;2023-09-08T08:36:50;8.43;;;6.40;;
1336;SDS011;662;48.814;9.318;2023-09-08T08:39:16;11.13;;;6.67;;
1336;SDS011;662;48.814;9.318;2023-09-08T08:41:41;6.70;;;6.10;;
1336;SDS011;662;48.814;9.318;2023-09-08T08:44:08;7.03;;;6.33;;
1336;SDS011;662;48.814;9.318;2023-09-08T08:46:35;8.00;;;6.60;;
1336;SDS011;662;48.814;9.318;2023-09-08T08:49:05;8.17;;;6.30;;
1336;SDS011;662;48.814;9.318;2023-09-08T08:51:31;7.27;;;6.57;;
1336;SDS011;662;48.814;9.318;2023-09-08T08:53:58;7.13;;;6.17;;
1336;SDS011;662;48.814;9.318;2023-09-08T08:56:29;7.00;;;6.30;;
1336;SDS011;662;48.814;9.318;2023-09-08T08:58:55;11.67;;;6.77;;
1336;SDS011;662;48.814;9.318;2023-09-08T09:01:23;7.33;;;6.17;;
1336;SDS011;662;48.814;9.318;2023-09-08T09:03:51;6.27;;;5.67;;
1336;SDS011;662;48.814;9.318;2023-09-08T09:06:17;6.43;;;5.83;;
1336;SDS011;662;48.814;9.318;2023-09-08T09:08:43;7.07;;;6.40;;
1336;SDS011;662;48.814;9.318;2023-09-08T09:11:10;7.20;;;5.33;;
1336;SDS011;662;48.814;9.318;2023-09-08T09:13:36;6.27;;;5.67;;
1336;SDS011;662;48.814;9.318;2023-09-08T09:16:02;8.20;;;5.53;;
1336;SDS011;662;48.814;9.318;2023-09-08T09:18:31;5.80;;;5.30;;
1336;SDS011;662;48.814;9.318;2023-09-08T09:20:58;5.97;;;5.43;;
1336;SDS011;662;48.814;9.318;2023-09-08T09:23:32;6.03;;;5.53;;
1336;SDS011;662;48.814;9.318;2023-09-08T09:25:59;5.83;;;5.33;;
1336;SDS011;662;48.814;9.318;2023-09-08T09:28:27;6.30;;;5.80;;
1336;SDS011;662;48.814;9.318;2023-09-08T09:30:54;6.30;;;5.53;;
1336;SDS011;662;48.814;9.318;2023-09-08T09:33:20;5.93;;;5.47;;
1336;SDS011;662;48.814;9.318;2023-09-08T09:35:47;5.55;;;5.15;;
1336;SDS011;662;48.814;9.318;2023-09-08T09:38:17;5.90;;;5.43;;
1336;SDS011;662;48.814;9.318;2023-09-08T09:40:47;5.22;;;4.72;;
1336;SDS011;662;48.814;9.318;2023-09-08T09:43:13;6.18;;;5.57;;
1336;SDS011;662;48.814;9.318;2023-09-08T09:45:41;6.20;;;4.50;;
1336;SDS011;662;48.814;9.318;2023-09-08T09:48:08;5.47;;;5.07;;
1336;SDS011;662;48.814;9.318;2023-09-08T09:50:36;5.10;;;4.70;;
1336;SDS011;662;48.814;9.318;2023-09-08T09:53:09;5.05;;;4.65;;
1336;SDS011;662;48.814;9.318;2023-09-08T09:55:38;5.85;;;5.35;;
1336;SDS011;662;48.814;9.318;2023-09-08T09:58:05;6.15;;;5.65;;
1336;SDS011;662;48.814;9.318;2023-09-08T10:00:31;6.47;;;5.50;;
1336;SDS011;662;48.814;9.318;2023-09-08T10:02:58;8.32;;;4.30;;
1336;SDS011;662;48.814;9.318;2023-09-08T10:05:24;4.50;;;4.20;;
1336;SDS011;662;48.814;9.318;2023-09-08T10:07:50;5.97;;;4.70;;
1336;SDS011;662;48.814;9.318;2023-09-08T10:10:16;5.25;;;4.85;;
1336;SDS011;662;48.814;9.318;2023-09-08T10:12:43;5.57;;;5.18;;
1336;SDS011;662;48.814;9.318;2023-09-08T10:15:11;6.03;;;5.43;;
1336;SDS011;662;48.814;9.318;2023-09-08T10:17:37;6.20;;;4.80;;
1336;SDS011;662;48.814;9.318;2023-09-08T10:20:05;5.93;;;5.32;;
1336;SDS011;662;48.814;9.318;2023-09-08T10:22:37;5.18;;;4.78;;
1336;SDS011;662;48.814;9.318;2023-09-08T10:25:07;5.25;;;4.75;;
1336;SDS011;662;48.814;9.318;2023-09-08T10:27:33;5.75;;;5.07;;
1336;SDS011;662;48.814;9.318;2023-09-08T10:30:01;5.67;;;5.27;;
1336;SDS011;662;48.814;9.318;2023-09-08T10:32:32;6.10;;;5.60;;
1336;SDS011;662;48.814;9.318;2023-09-08T10:34:59;5.57;;;5.13;;
1336;SDS011;662;48.814;9.318;2023-09-08T10:37:26;6.97;;;5.40;;
1336;SDS011;662;48.814;9.318;2023-09-08T10:39:55;5.90;;;5.30;;
1336;SDS011;662;48.814;9.318;2023-09-08T10:42:22;6.23;;;5.60;;
1336;SDS011;662;48.814;9.318;2023-09-08T10:47:33;5.90;;;5.40;;
1336;SDS011;662;48.814;9.318;2023-09-08T10:50:19;6.10;;;5.60;;
1336;SDS011;662;48.814;9.318;2023-09-08T10:55:52;6.40;;;5.80;;
1336;SDS011;662;48.814;9.318;2023-09-08T10:58:34;6.57;;;6.07;;
1336;SDS011;662;48.814;9.318;2023-09-08T11:01:03;6.53;;;5.93;;
1336;SDS011;662;48.814;9.318;2023-09-08T11:06:02;7.97;;;6.20;;
1336;SDS011;662;48.814;9.318;2023-09-08T11:08:28;6.47;;;5.67;;
1336;SDS011;662;48.814;9.318;2023-09-08T11:10:55;5.60;;;5.10;;
1336;SDS011;662;48.814;9.318;2023-09-08T11:13:21;5.13;;;4.73;;
1336;SDS011;662;48.814;9.318;2023-09-08T11:15:46;6.37;;;5.93;;
1336;SDS011;662;48.814;9.318;2023-09-08T11:18:12;5.63;;;5.23;;
1336;SDS011;662;48.814;9.318;2023-09-08T11:20:38;5.63;;;5.20;;
1336;SDS011;662;48.814;9.318;2023-09-08T11:23:04;6.03;;;5.37;;
1336;SDS011;662;48.814;9.318;2023-09-08T11:25:32;6.13;;;5.53;;
1336;SDS011;662;48.814;9.318;2023-09-08T11:27:59;5.50;;;5.00;;
1336;SDS011;662;48.814;9.318;2023-09-08T11:30:25;6.30;;;5.70;;
1336;SDS011;662;48.814;9.318;2023-09-08T11:32:51;5.57;;;5.18;;
1336;SDS011;662;48.814;9.318;2023-09-08T11:35:17;6.45;;;5.95;;
1336;SDS011;662;48.814;9.318;2023-09-08T11:37:46;6.13;;;5.63;;
1336;SDS011;662;48.814;9.318;2023-09-08T11:40:12;5.53;;;5.10;;
1336;SDS011;662;48.814;9.318;2023-09-08T11:42:39;6.18;;;5.32;;
1336;SDS011;662;48.814;9.318;2023-09-08T11:45:14;5.20;;;4.80;;
1336;SDS011;662;48.814;9.318;2023-09-08T11:47:48;6.47;;;5.88;;
1336;SDS011;662;48.814;9.318;2023-09-08T11:50:14;6.43;;;5.82;;
1336;SDS011;662;48.814;9.318;2023-09-08T11:52:48;5.72;;;5.22;;
1336;SDS011;662;48.814;9.318;2023-09-08T11:55:15;6.13;;;5.63;;
1336;SDS011;662;48.814;9.318;2023-09-08T11:57:41;9.85;;;5.30;;
1336;SDS011;662;48.814;9.318;2023-09-08T12:00:09;5.57;;;5.18;;
1336;SDS011;662;48.814;9.318;2023-09-08T12:02:39;5.72;;;5.30;;
1336;SDS011;662;48.814;9.318;2023-09-08T12:05:05;6.95;;;6.03;;
1336;SDS011;662;48.814;9.318;2023-09-08T12:07:37;4.93;;;4.63;;
1336;SDS011;662;48.814;9.318;2023-09-08T12:10:12;6.07;;;5.40;;
1336;SDS011;662;48.814;9.318;2023-09-08T12:12:42;5.53;;;5.10;;
1336;SDS011;662;48.814;9.318;2023-09-08T12:15:09;5.30;;;4.90;;
1336;SDS011;662;48.814;9.318;2023-09-08T12:17:46;8.40;;;5.43;;
1336;SDS011;662;48.814;9.318;2023-09-08T12:20:17;5.28;;;4.90;;
1336;SDS011;662;48.814;9.318;2023-09-08T12:22:49;5.57;;;5.18;;
1336;SDS011;662;48.814;9.318;2023-09-08T12:25:15;6.18;;;5.68;;
1336;SDS011;662;48.814;9.318;2023-09-08T12:27:41;5.60;;;5.20;;
1336;SDS011;662;48.814;9.318;2023-09-08T12:30:07;7.22;;;4.95;;
1336;SDS011;662;48.814;9.318;2023-09-08T12:32:34;5.20;;;4.80;;
1336;SDS011;662;48.814;9.318;2023-09-08T12:35:02;5.75;;;5.25;;
1336;SDS011;662;48.814;9.318;2023-09-08T12:37:29;5.80;;;5.28;;
1336;SDS011;662;48.814;9.318;2023-09-08T12:39:55;5.78;;;5.28;;
1336;SDS011;662;48.814;9.318;2023-09-08T12:42:21;5.80;;;5.40;;
1336;SDS011;662;48.814;9.318;2023-09-08T12:44:50;6.18;;;5.68;;
1336;SDS011;662;48.814;9.318;2023-09-08T12:47:17;5.28;;;4.88;;
1336;SDS011;662;48.814;9.318;2023-09-08T12:49:42;4.70;;;4.30;;
1336;SDS011;662;48.814;9.318;2023-09-08T12:52:08;5.78;;;5.38;;
1336;SDS011;662;48.814;9.318;2023-09-08T12:54:34;5.05;;;4.65;;
1336;SDS011;662;48.814;9.318;2023-09-08T12:57:00;5.85;;;5.45;;
1336;SDS011;662;48.814;9.318;2023-09-08T12:59:26;6.10;;;5.60;;
1336;SDS011;662;48.814;9.318;2023-09-08T13:01:52;6.28;;;5.78;;
1336;SDS011;662;48.814;9.318;2023-09-08T13:04:18;5.35;;;4.95;;
1336;SDS011;662;48.814;9.318;2023-09-08T13:06:44;5.80;;;5.30;;
1336;SDS011;662;48.814;9.318;2023-09-08T13:09:10;5.20;;;4.90;;
1336;SDS011;662;48.814;9.318;2023-09-08T13:11:36;5.50;;;5.10;;
1336;SDS011;662;48.814;9.318;2023-09-08T13:14:01;5.65;;;5.15;;
1336;SDS011;662;48.814;9.318;2023-09-08T13:16:27;6.05;;;5.65;;
1336;SDS011;662;48.814;9.318;2023-09-08T13:18:53;5.63;;;5.18;;
1336;SDS011;662;48.814;9.318;2023-09-08T13:21:18;5.82;;;5.43;;
1336;SDS011;662;48.814;9.318;2023-09-08T13:23:44;5.57;;;5.05;;
1336;SDS011;662;48.814;9.318;2023-09-08T13:26:10;5.47;;;5.05;;
1336;SDS011;662;48.814;9.318;2023-09-08T13:28:35;5.63;;;5.15;;
1336;SDS011;662;48.814;9.318;2023-09-08T13:31:01;5.25;;;4.78;;
1336;SDS011;662;48.814;9.318;2023-09-08T13:33:27;5.95;;;5.43;;
1336;SDS011;662;48.814;9.318;2023-09-08T13:35:52;5.70;;;5.25;;
1336;SDS011;662;48.814;9.318;2023-09-08T13:38:18;5.65;;;5.05;;
1336;SDS011;662;48.814;9.318;2023-09-08T13:40:44;5.63;;;4.70;;
1336;SDS011;662;48.814;9.318;2023-09-08T13:43:09;6.55;;;5.10;;
1336;SDS011;662;48.814;9.318;2023-09-08T13:45:36;5.38;;;4.88;;
1336;SDS011;662;48.814;9.318;2023-09-08T13:48:02;5.35;;;4.85;;
1336;SDS011;662;48.814;9.318;2023-09-08T13:50:29;5.57;;;4.63;;
1336;SDS011;662;48.814;9.318;2023-09-08T13:52:55;6.00;;;5.60;;
1336;SDS011;662;48.814;9.318;2023-09-08T13:55:20;5.68;;;5.20;;
1336;SDS011;662;48.814;9.318;2023-09-08T13:57:48;5.22;;;4.82;;
1336;SDS011;662;48.814;9.318;2023-09-08T14:00:15;5.22;;;4.50;;
1336;SDS011;662;48.814;9.318;2023-09-08T14:02:44;5.88;;;5.47;;
1336;SDS011;662;48.814;9.318;2023-09-08T14:05:09;5.05;;;4.65;;
1336;SDS011;662;48.814;9.318;2023-09-08T14:07:35;5.60;;;5.10;;
1336;SDS011;662;48.814;9.318;2023-09-08T14:10:01;6.03;;;5.53;;
1336;SDS011;662;48.814;9.318;2023-09-08T14:12:32;4.88;;;4.47;;
1336;SDS011;662;48.814;9.318;2023-09-08T14:14:58;5.35;;;4.90;;
1336;SDS011;662;48.814;9.318;2023-09-08T14:17:23;5.55;;;5.15;;
1336;SDS011;662;48.814;9.318;2023-09-08T14:19:49;5.32;;;4.93;;
1336;SDS011;662;48.814;9.318;2023-09-08T14:22:14;5.30;;;4.90;;
1336;SDS011;662;48.814;9.318;2023-09-08T14:24:40;5.15;;;4.75;;
1336;SDS011;662;48.814;9.318;2023-09-08T14:27:06;5.25;;;4.90;;
1336;SDS011;662;48.814;9.318;2023-09-08T14:29:32;6.45;;;5.63;;
1336;SDS011;662;48.814;9.318;2023-09-08T14:31:59;5.85;;;5.45;;
1336;SDS011;662;48.814;9.318;2023-09-08T14:34:24;6.63;;;5.20;;
1336;SDS011;662;48.814;9.318;2023-09-08T14:36:50;5.45;;;4.88;;
1336;SDS011;662;48.814;9.318;2023-09-08T14:39:15;6.45;;;4.90;;
1336;SDS011;662;48.814;9.318;2023-09-08T14:41:44;6.20;;;5.22;;
1336;SDS011;662;48.814;9.318;2023-09-08T14:44:10;5.55;;;5.05;;
1336;SDS011;662;48.814;9.318;2023-09-08T14:46:35;5.72;;;5.22;;
1336;SDS011;662;48.814;9.318;2023-09-08T14:49:01;5.22;;;4.82;;
1336;SDS011;662;48.814;9.318;2023-09-08T14:51:27;5.85;;;5.35;;
1336;SDS011;662;48.814;9.318;2023-09-08T14:53:53;5.53;;;5.13;;
1336;SDS011;662;48.814;9.318;2023-09-08T14:56:19;5.97;;;5.45;;
1336;SDS011;662;48.814;9.318;2023-09-08T14:58:44;5.50;;;4.97;;
1336;SDS011;662;48.814;9.318;2023-09-08T15:01:10;6.07;;;5.57;;
1336;SDS011;662;48.814;9.318;2023-09-08T15:03:38;5.83;;;5.23;;
1336;SDS011;662;48.814;9.318;2023-09-08T15:06:04;6.37;;;5.87;;
1336;SDS011;662;48.814;9.318;2023-09-08T15:08:30;6.10;;;5.60;;
1336;SDS011;662;48.814;9.318;2023-09-08T15:10:55;6.10;;;5.57;;
1336;SDS011;662;48.814;9.318;2023-09-08T15:13:21;5.93;;;5.43;;
1336;SDS011;662;48.814;9.318;2023-09-08T15:15:47;6.03;;;5.30;;
1336;SDS011;662;48.814;9.318;2023-09-08T15:18:13;5.80;;;5.30;;
1336;SDS011;662;48.814;9.318;2023-09-08T15:20:38;6.17;;;5.77;;
1336;SDS011;662;48.814;9.318;2023-09-08T15:23:05;6.70;;;6.10;;
1336;SDS011;662;48.814;9.318;2023-09-08T15:25:31;5.77;;;5.20;;
1336;SDS011;662;48.814;9.318;2023-09-08T15:27:57;6.70;;;6.10;;
1336;SDS011;662;48.814;9.318;2023-09-08T15:30:22;6.20;;;5.60;;
1336;SDS011;662;48.814;9.318;2023-09-08T15:32:48;6.00;;;5.50;;
1336;SDS011;662;48.814;9.318;2023-09-08T15:35:13;5.80;;;5.30;;